Time;durP1;ratioP1;P1;durP2;ratioP2;P2;SDS_P1;SDS_P2;PMS_P1;PMS_P2;Temp;Humidity;BMP_temperature;BMP_pressure;BME280_temperature;BME280_humidity;BME280_pressure;Samples;Min_cycle;Max_cycle;Signal;HPM_P1;HPM_P2
2022/03/18 00:02:12;;;;;;;15.30;10.95;;;22.40;59.70;;;;;;4950015;28;20396;-72
2022/03/18 00:04:38;;;;;;;16.98;11.20;;;22.40;59.60;;;;;;4950348;28;20126;-72
2022/03/18 00:07:04;;;;;;;14.55;10.05;;;22.40;59.80;;;;;;4947787;28;20505;-70
2022/03/18 00:09:30;;;;;;;18.15;11.30;;;22.40;59.80;;;;;;4949772;29;20125;-72
2022/03/18 00:11:57;;;;;;;15.77;10.00;;;22.30;59.20;;;;;;4950215;28;20038;-72
2022/03/18 00:14:22;;;;;;;16.98;10.45;;;22.20;58.40;;;;;;4950684;28;20031;-72
2022/03/18 00:16:48;;;;;;;19.77;10.23;;;22.20;58.00;;;;;;4949283;28;20024;-73
2022/03/18 00:19:14;;;;;;;15.85;10.25;;;22.20;57.50;;;;;;4952561;28;20516;-72
2022/03/18 00:21:40;;;;;;;18.08;10.55;;;22.20;56.60;;;;;;4953522;29;20087;-72
2022/03/18 00:24:06;;;;;;;16.25;10.65;;;22.20;56.40;;;;;;4951772;29;20054;-72
2022/03/18 00:26:32;;;;;;;13.40;9.38;;;22.30;56.20;;;;;;4953574;28;20039;-72
2022/03/18 00:28:58;;;;;;;24.30;10.20;;;22.30;56.30;;;;;;4952262;28;20035;-72
2022/03/18 00:31:24;;;;;;;18.73;10.20;;;22.30;56.40;;;;;;4951512;28;20037;-73
2022/03/18 00:33:50;;;;;;;16.42;9.80;;;22.30;56.50;;;;;;4953407;28;20403;-73
2022/03/18 00:36:16;;;;;;;14.80;9.52;;;22.30;56.70;;;;;;4954665;28;20453;-71
2022/03/18 00:38:41;;;;;;;16.08;9.73;;;22.30;56.70;;;;;;4974736;28;20023;-72
2022/03/18 00:41:07;;;;;;;16.13;9.70;;;22.40;56.80;;;;;;4973730;28;20500;-72
2022/03/18 00:43:33;;;;;;;16.40;9.48;;;22.30;56.80;;;;;;4973567;28;20090;-72
2022/03/18 00:45:59;;;;;;;15.45;9.13;;;22.30;56.90;;;;;;4970967;28;20035;-72
2022/03/18 00:53:54;;;;;;;15.85;8.85;;;22.30;57.20;;;;;;4955296;28;20106;-72
2022/03/18 00:56:19;;;;;;;17.58;8.55;;;22.30;57.30;;;;;;4955026;28;20540;-73
2022/03/18 00:58:45;;;;;;;15.35;8.27;;;22.30;57.30;;;;;;4954373;29;20027;-72
2022/03/18 01:01:12;;;;;;;14.73;8.40;;;22.20;57.20;;;;;;4954443;29;20065;-73
2022/03/18 01:03:37;;;;;;;15.57;9.00;;;22.20;57.30;;;;;;4953947;29;20130;-73
2022/03/18 01:06:03;;;;;;;15.27;8.57;;;22.30;57.30;;;;;;4952465;29;20492;-72
2022/03/18 01:08:29;;;;;;;15.32;8.68;;;22.20;57.30;;;;;;4966957;28;20118;-72
2022/03/18 01:10:55;;;;;;;17.25;9.20;;;22.20;57.40;;;;;;4936361;29;20123;-73
2022/03/18 01:13:22;;;;;;;15.27;8.40;;;22.20;57.40;;;;;;4936084;29;20093;-73
2022/03/18 01:15:48;;;;;;;19.63;8.23;;;22.20;57.50;;;;;;4936460;29;20032;-72
2022/03/18 01:18:14;;;;;;;13.80;7.93;;;22.20;57.40;;;;;;4954875;29;20031;-73
2022/03/18 01:20:40;;;;;;;15.30;8.07;;;22.20;57.40;;;;;;4955268;28;20262;-73
2022/03/18 01:23:06;;;;;;;14.13;8.07;;;22.20;57.40;;;;;;4954836;29;20028;-72
2022/03/18 01:25:33;;;;;;;14.10;7.88;;;22.20;57.50;;;;;;4938169;29;20031;-72
2022/03/18 01:28:01;;;;;;;13.65;7.63;;;22.20;57.50;;;;;;4937263;28;20032;-72
2022/03/18 01:30:30;;;;;;;13.52;8.18;;;22.20;58.10;;;;;;4935203;29;20110;-72
2022/03/18 01:33:00;;;;;;;13.38;7.70;;;22.20;57.60;;;;;;4935570;29;20112;-72
2022/03/18 01:35:26;;;;;;;15.25;8.10;;;22.20;57.70;;;;;;4935639;29;20027;-72
2022/03/18 01:37:52;;;;;;;15.32;7.47;;;22.20;57.60;;;;;;4951643;29;20091;-73
2022/03/18 01:40:17;;;;;;;12.88;8.05;;;22.20;57.60;;;;;;4955045;29;20106;-72
2022/03/18 01:42:43;;;;;;;15.57;7.80;;;22.20;57.60;;;;;;4954047;29;20030;-73
2022/03/18 01:45:09;;;;;;;16.15;7.75;;;22.20;57.70;;;;;;4954820;29;20054;-72
2022/03/18 01:47:35;;;;;;;12.63;6.97;;;22.20;57.70;;;;;;4940540;29;20074;-72
2022/03/18 01:50:01;;;;;;;11.85;7.07;;;22.20;57.60;;;;;;4935571;29;20036;-72
2022/03/18 01:52:27;;;;;;;11.77;6.80;;;22.20;57.80;;;;;;4935043;29;20485;-73
2022/03/18 01:54:53;;;;;;;11.60;7.57;;;22.20;57.80;;;;;;4935616;29;20059;-72
2022/03/18 01:57:22;;;;;;;14.15;7.20;;;22.20;57.80;;;;;;4946815;29;20083;-72
2022/03/18 01:59:50;;;;;;;17.83;7.50;;;22.20;57.90;;;;;;4953286;29;20547;-72
2022/03/18 02:02:16;;;;;;;12.25;6.78;;;22.20;57.90;;;;;;4954454;29;20027;-73
2022/03/18 02:04:43;;;;;;;13.50;6.70;;;22.20;58.00;;;;;;4952977;28;20062;-72
2022/03/18 02:07:09;;;;;;;15.13;7.30;;;22.10;57.90;;;;;;4943047;29;20039;-73
2022/03/18 02:09:37;;;;;;;13.38;6.40;;;22.20;58.00;;;;;;4935286;29;20059;-73
2022/03/18 02:12:03;;;;;;;14.30;6.43;;;22.20;58.20;;;;;;4933370;29;20027;-73
2022/03/18 02:14:38;;;;;;;12.68;6.43;;;22.10;58.20;;;;;;4965666;28;20042;-72
2022/03/18 02:17:06;;;;;;;10.70;6.90;;;22.20;58.10;;;;;;4943714;29;20028;-72
2022/03/18 02:19:32;;;;;;;18.63;7.15;;;22.10;58.30;;;;;;4954141;28;20526;-72
2022/03/18 02:21:58;;;;;;;11.73;6.63;;;22.10;58.10;;;;;;4954071;28;20106;-73
2022/03/18 02:24:25;;;;;;;12.30;6.82;;;22.20;58.30;;;;;;4953871;28;20163;-72
2022/03/18 02:26:52;;;;;;;11.05;6.38;;;22.20;58.40;;;;;;4946539;28;20030;-72
2022/03/18 02:29:19;;;;;;;10.60;6.47;;;22.10;58.10;;;;;;4933685;29;20028;-73
2022/03/18 02:31:45;;;;;;;13.23;6.35;;;22.10;58.20;;;;;;4935595;29;20038;-72
2022/03/18 02:34:11;;;;;;;12.05;6.20;;;22.10;58.00;;;;;;4934428;29;20040;-72
2022/03/18 02:36:37;;;;;;;10.98;6.10;;;22.10;58.00;;;;;;4939381;29;20034;-72
2022/03/18 02:39:03;;;;;;;13.60;6.72;;;22.10;58.20;;;;;;4953637;28;20106;-73
2022/03/18 02:41:29;;;;;;;13.50;6.57;;;22.10;58.20;;;;;;4952334;28;20527;-73
2022/03/18 02:43:55;;;;;;;11.32;5.97;;;22.10;57.70;;;;;;4953545;29;20055;-73
2022/03/18 02:46:21;;;;;;;11.25;6.10;;;22.10;58.10;;;;;;4950543;29;20027;-72
2022/03/18 02:48:47;;;;;;;13.18;6.30;;;22.10;57.90;;;;;;4934436;29;20028;-72
2022/03/18 02:51:13;;;;;;;11.00;5.88;;;22.10;58.40;;;;;;4934396;29;20115;-73
2022/03/18 02:53:39;;;;;;;12.63;6.40;;;22.10;57.70;;;;;;4933948;29;20099;-72
2022/03/18 02:56:06;;;;;;;14.23;6.10;;;22.10;57.80;;;;;;4965458;28;20492;-73
2022/03/18 02:58:32;;;;;;;11.57;6.13;;;22.10;57.80;;;;;;4952348;29;20031;-73
2022/03/18 03:00:58;;;;;;;14.45;6.45;;;22.10;57.70;;;;;;4952190;29;20110;-73
2022/03/18 03:03:24;;;;;;;13.60;6.30;;;22.10;57.80;;;;;;4952756;29;20110;-73
2022/03/18 03:08:34;;;;;;;11.73;6.07;;;22.10;57.60;;;;;;4934177;29;20033;-73
2022/03/18 03:10:59;;;;;;;11.45;5.72;;;22.10;57.50;;;;;;4934439;29;20039;-73
2022/03/18 03:13:25;;;;;;;9.10;5.68;;;22.10;57.60;;;;;;4932363;29;20063;-72
2022/03/18 03:15:51;;;;;;;11.18;5.80;;;22.10;57.50;;;;;;4934208;29;20393;-73
2022/03/18 03:18:16;;;;;;;6.88;4.80;;;22.10;57.70;;;;;;4951095;29;20054;-72
2022/03/18 03:20:42;;;;;;;12.25;6.03;;;22.00;57.20;;;;;;4953552;29;20385;-73
2022/03/18 03:23:09;;;;;;;12.18;6.07;;;22.10;58.00;;;;;;4952785;28;20027;-73
2022/03/18 03:25:35;;;;;;;9.70;5.20;;;22.00;57.70;;;;;;4952151;29;20082;-72
2022/03/18 03:28:01;;;;;;;9.60;5.45;;;22.10;57.50;;;;;;4936561;29;20548;-72
2022/03/18 03:30:27;;;;;;;12.35;5.90;;;22.10;57.70;;;;;;4933880;29;20058;-72
2022/03/18 03:32:53;;;;;;;7.72;4.75;;;22.10;57.10;;;;;;4933611;29;20059;-73
2022/03/18 03:35:19;;;;;;;11.52;5.50;;;22.00;57.40;;;;;;4933765;29;20067;-73
2022/03/18 03:37:45;;;;;;;10.10;5.40;;;22.00;57.60;;;;;;4945700;28;20440;-73
2022/03/18 03:40:13;;;;;;;10.82;5.50;;;22.00;56.90;;;;;;4953301;28;20035;-73
2022/03/18 03:42:41;;;;;;;9.32;5.18;;;22.00;57.40;;;;;;4952665;29;20027;-73
2022/03/18 03:45:08;;;;;;;9.55;5.93;;;22.00;56.80;;;;;;4952979;28;20035;-72
2022/03/18 03:47:33;;;;;;;10.40;5.43;;;22.00;57.20;;;;;;4941041;29;20528;-72
2022/03/18 03:49:59;;;;;;;8.02;5.03;;;22.10;57.30;;;;;;4934000;29;20055;-73
2022/03/18 03:52:25;;;;;;;12.73;5.68;;;22.00;57.10;;;;;;4933451;29;20481;-73
2022/03/18 03:54:50;;;;;;;9.32;5.35;;;22.10;57.40;;;;;;4968585;28;20124;-73
2022/03/18 03:57:16;;;;;;;8.40;5.00;;;22.00;57.60;;;;;;4945914;29;20038;-72
2022/03/18 03:59:42;;;;;;;9.68;5.38;;;22.10;57.60;;;;;;4955846;29;20031;-72
2022/03/18 04:02:08;;;;;;;10.30;5.22;;;22.10;56.80;;;;;;4952158;29;20493;-73
2022/03/18 04:04:34;;;;;;;7.70;4.55;;;22.10;57.30;;;;;;4977876;23;20081;-70
2022/03/18 04:06:59;;;;;;;8.55;4.80;;;22.00;56.70;;;;;;4974544;28;20054;-70
2022/03/18 04:09:25;;;;;;;12.63;5.78;;;22.00;57.30;;;;;;4958525;28;20038;-71
2022/03/18 04:11:51;;;;;;;9.18;4.55;;;22.00;57.30;;;;;;4975707;28;20062;-71
2022/03/18 04:14:16;;;;;;;8.43;4.68;;;22.00;56.80;;;;;;4975614;28;20353;-71
2022/03/18 04:16:44;;;;;;;9.95;4.95;;;22.00;56.60;;;;;;4975613;28;20038;-71
2022/03/18 04:19:11;;;;;;;11.20;4.82;;;22.00;56.90;;;;;;4975779;28;20029;-71
2022/03/18 04:21:37;;;;;;;9.23;4.55;;;22.00;57.00;;;;;;4975660;28;20023;-71
2022/03/18 04:24:05;;;;;;;10.30;4.87;;;22.00;56.60;;;;;;4975410;28;20105;-71
2022/03/18 04:26:31;;;;;;;10.50;5.10;;;22.00;56.80;;;;;;4974211;28;20439;-71
2022/03/18 04:28:57;;;;;;;8.40;4.57;;;22.00;56.70;;;;;;4974403;28;20019;-71
2022/03/18 04:31:23;;;;;;;10.05;4.57;;;22.00;56.80;;;;;;4975344;28;20027;-71
2022/03/18 04:33:48;;;;;;;11.20;5.25;;;22.00;57.20;;;;;;4975079;28;20391;-71
2022/03/18 04:36:14;;;;;;;8.55;4.78;;;22.00;56.80;;;;;;4975149;28;20038;-72
2022/03/18 04:38:40;;;;;;;8.30;4.63;;;22.00;56.80;;;;;;4956053;29;20039;-71
2022/03/18 04:41:06;;;;;;;8.73;4.30;;;22.00;57.00;;;;;;4956282;29;20037;-71
2022/03/18 04:43:31;;;;;;;10.10;5.28;;;22.00;56.90;;;;;;4955766;28;20042;-72
2022/03/18 04:45:57;;;;;;;9.10;4.97;;;22.00;56.90;;;;;;4961567;28;20026;-72
2022/03/18 04:48:23;;;;;;;10.05;4.95;;;22.00;56.90;;;;;;4975109;28;20090;-72
2022/03/18 04:50:49;;;;;;;8.82;4.53;;;22.00;56.90;;;;;;4975125;28;20053;-72
2022/03/18 04:53:14;;;;;;;11.48;4.80;;;22.00;57.00;;;;;;4974576;28;20039;-71
2022/03/18 04:55:40;;;;;;;11.90;4.88;;;22.00;56.80;;;;;;4973636;28;20430;-72
2022/03/18 04:58:06;;;;;;;9.63;4.28;;;22.00;56.90;;;;;;4975053;28;20483;-71
2022/03/18 05:00:32;;;;;;;7.47;4.13;;;22.00;57.00;;;;;;4975225;28;20395;-72
2022/03/18 05:02:57;;;;;;;8.23;4.20;;;22.00;56.90;;;;;;4974698;28;20073;-72
2022/03/18 05:05:23;;;;;;;9.48;4.50;;;22.00;57.00;;;;;;4974903;28;20513;-71
2022/03/18 05:07:50;;;;;;;7.68;4.10;;;22.00;57.20;;;;;;4974852;28;20034;-71
2022/03/18 05:10:17;;;;;;;8.80;4.78;;;22.00;56.90;;;;;;4974809;28;20054;-71
2022/03/18 05:12:43;;;;;;;7.78;4.10;;;22.00;56.90;;;;;;4974515;28;20100;-71
2022/03/18 05:15:10;;;;;;;9.15;4.68;;;22.00;57.00;;;;;;4974301;28;20022;-72
2022/03/18 05:17:36;;;;;;;10.32;4.60;;;22.00;57.00;;;;;;4974445;28;20110;-72
2022/03/18 05:20:04;;;;;;;8.93;4.90;;;22.00;57.00;;;;;;4973465;28;20125;-72
2022/03/18 05:22:30;;;;;;;9.52;4.53;;;21.90;56.90;;;;;;4974237;28;20395;-72
2022/03/18 05:24:57;;;;;;;9.07;4.68;;;22.00;57.10;;;;;;4974563;28;20681;-72
2022/03/18 05:27:24;;;;;;;6.80;4.03;;;22.00;57.00;;;;;;4973958;28;20030;-72
2022/03/18 05:29:50;;;;;;;8.23;4.57;;;22.00;56.80;;;;;;4974605;28;20463;-72
2022/03/18 05:32:16;;;;;;;9.15;4.60;;;22.00;57.00;;;;;;4973870;28;20118;-71
2022/03/18 05:34:42;;;;;;;10.50;4.63;;;21.90;56.90;;;;;;4974259;28;20542;-72
2022/03/18 05:37:08;;;;;;;9.07;4.45;;;22.00;56.80;;;;;;4973646;28;20026;-72
2022/03/18 05:39:34;;;;;;;7.55;4.10;;;22.00;57.20;;;;;;4974209;28;20019;-72
2022/03/18 05:41:59;;;;;;;9.25;4.68;;;21.90;57.00;;;;;;4973801;28;20023;-72
2022/03/18 05:44:25;;;;;;;6.82;3.97;;;21.90;56.80;;;;;;4974378;28;20027;-72
2022/03/18 05:46:51;;;;;;;7.32;4.35;;;22.00;57.00;;;;;;4972632;28;20030;-72
2022/03/18 05:49:18;;;;;;;12.32;4.75;;;21.90;57.40;;;;;;4974188;28;20031;-72
2022/03/18 05:51:45;;;;;;;7.25;4.05;;;22.00;57.20;;;;;;4973948;28;20037;-72
2022/03/18 05:54:12;;;;;;;10.82;4.10;;;21.90;57.20;;;;;;4973761;28;20039;-72
2022/03/18 05:56:53;;;;;;;8.50;4.18;;;22.00;57.10;;;;;;4973559;28;20076;-72
2022/03/18 05:59:24;;;;;;;14.68;4.60;;;21.90;56.90;;;;;;4973991;28;20460;-71
2022/03/18 06:01:52;;;;;;;9.98;4.28;;;21.90;57.20;;;;;;4973763;28;20027;-72
2022/03/18 06:04:18;;;;;;;10.60;4.93;;;21.90;57.20;;;;;;4973723;28;20408;-73
2022/03/18 06:06:47;;;;;;;10.45;4.20;;;22.00;57.00;;;;;;4973386;28;20027;-71
2022/03/18 06:11:57;;;;;;;7.10;3.88;;;22.00;57.10;;;;;;4973480;28;20224;-72
2022/03/18 06:14:25;;;;;;;10.30;4.35;;;21.90;57.00;;;;;;4973395;28;20061;-72
2022/03/18 06:16:53;;;;;;;9.45;4.05;;;22.00;57.10;;;;;;4972464;28;20478;-72
2022/03/18 06:19:21;;;;;;;8.32;4.10;;;21.90;56.90;;;;;;4952730;29;20735;-72
2022/03/18 06:21:47;;;;;;;8.43;4.18;;;21.90;57.40;;;;;;4937155;29;20027;-72
2022/03/18 06:24:13;;;;;;;8.02;4.15;;;22.00;57.10;;;;;;4954042;28;20043;-72
2022/03/18 06:26:40;;;;;;;8.77;4.32;;;22.00;57.00;;;;;;4962168;28;20018;-72
2022/03/18 06:29:06;;;;;;;8.82;4.15;;;21.90;56.90;;;;;;4973253;28;20022;-71
2022/03/18 06:31:33;;;;;;;10.35;4.57;;;21.90;57.50;;;;;;4973214;28;20030;-72
2022/03/18 06:33:59;;;;;;;9.02;4.07;;;21.90;57.00;;;;;;4972699;28;20120;-72
2022/03/18 06:36:25;;;;;;;8.70;4.13;;;21.90;57.00;;;;;;4973023;28;20034;-71
2022/03/18 06:38:51;;;;;;;10.63;4.18;;;21.90;56.90;;;;;;4973307;28;20042;-71
2022/03/18 06:41:19;;;;;;;9.40;4.20;;;21.90;56.90;;;;;;4972975;28;20026;-72
2022/03/18 06:43:46;;;;;;;11.00;4.13;;;21.90;57.00;;;;;;4972169;28;20034;-71
2022/03/18 06:46:11;;;;;;;7.50;3.97;;;21.90;56.90;;;;;;4972599;28;20023;-71
2022/03/18 06:48:37;;;;;;;7.85;4.05;;;21.90;56.70;;;;;;4973083;28;20030;-72
2022/03/18 06:51:03;;;;;;;9.10;3.67;;;21.90;56.80;;;;;;4973164;28;20035;-72
2022/03/18 06:53:29;;;;;;;8.85;3.90;;;21.90;56.90;;;;;;4972516;28;20037;-72
2022/03/18 06:55:55;;;;;;;9.40;4.25;;;21.90;56.60;;;;;;4971448;28;20027;-72
2022/03/18 06:58:20;;;;;;;10.18;4.05;;;21.90;56.70;;;;;;4972558;28;20023;-72
2022/03/18 07:00:46;;;;;;;9.38;4.40;;;21.90;56.60;;;;;;4971615;28;20073;-71
2022/03/18 07:03:13;;;;;;;8.25;4.05;;;21.90;56.60;;;;;;4972539;28;20086;-72
2022/03/18 07:05:39;;;;;;;8.52;4.07;;;21.90;56.50;;;;;;4972586;28;20045;-73
2022/03/18 07:08:05;;;;;;;6.68;3.75;;;21.90;56.50;;;;;;4971603;28;20439;-71
2022/03/18 07:10:32;;;;;;;8.10;3.75;;;21.90;56.60;;;;;;4939571;28;20035;-72
2022/03/18 07:12:57;;;;;;;8.18;3.65;;;22.00;56.80;;;;;;4970862;28;20181;-72
2022/03/18 07:15:23;;;;;;;8.02;3.85;;;21.90;56.90;;;;;;4955170;28;20035;-71
2022/03/18 07:17:55;;;;;;;10.80;4.22;;;22.00;56.90;;;;;;4971452;28;20042;-72
2022/03/18 07:20:25;;;;;;;8.27;3.88;;;22.00;56.70;;;;;;4972828;28;20041;-72
2022/03/18 07:23:09;;;;;;;;;;;22.00;56.80;;;;;;4972837;28;20026;-72
2022/03/18 07:25:37;;;;;;;7.38;3.53;;;22.00;56.70;;;;;;4972344;28;19968;-72
2022/03/18 07:28:05;;;;;;;9.98;3.85;;;22.00;56.60;;;;;;4971237;28;20027;-72
2022/03/18 07:30:31;;;;;;;8.18;3.65;;;22.00;56.40;;;;;;4972646;28;20480;-72
2022/03/18 07:32:56;;;;;;;7.70;3.28;;;22.00;56.80;;;;;;4971991;28;20054;-72
2022/03/18 07:35:22;;;;;;;9.32;3.97;;;22.00;56.50;;;;;;4968498;28;20363;-71
2022/03/18 07:37:49;;;;;;;7.88;3.63;;;22.00;56.60;;;;;;4970690;28;20062;-72
2022/03/18 07:40:17;;;;;;;10.50;4.00;;;21.90;56.80;;;;;;4972222;28;20030;-72
2022/03/18 07:42:48;;;;;;;10.07;3.72;;;22.00;57.30;;;;;;4954475;28;20047;-72
2022/03/18 07:45:21;;;;;;;7.93;3.40;;;22.00;57.60;;;;;;4970897;28;20035;-71
2022/03/18 07:47:50;;;;;;;8.85;3.83;;;22.00;57.70;;;;;;4952913;28;20387;-72
2022/03/18 07:50:20;;;;;;;;;;;22.00;57.70;;;;;;4952056;29;20230;-72
2022/03/18 07:52:50;;;;;;;9.82;3.83;;;22.00;57.80;;;;;;4952806;28;19910;-72
2022/03/18 07:55:24;;;;;;;8.27;3.88;;;22.00;57.90;;;;;;4960737;28;20045;-72
2022/03/18 07:57:51;;;;;;;10.75;3.80;;;22.00;57.90;;;;;;4972245;28;20029;-71
2022/03/18 08:00:17;;;;;;;14.00;3.72;;;22.00;57.80;;;;;;4971919;28;20041;-72
2022/03/18 08:02:44;;;;;;;9.43;3.63;;;22.00;57.80;;;;;;4971416;28;20033;-71
2022/03/18 08:05:11;;;;;;;10.63;3.70;;;22.00;57.70;;;;;;4970189;28;20118;-72
2022/03/18 08:07:37;;;;;;;8.05;3.67;;;22.00;57.90;;;;;;4955007;28;20101;-72
2022/03/18 08:10:04;;;;;;;9.32;3.35;;;22.10;57.90;;;;;;4972249;28;20113;-72
2022/03/18 08:12:31;;;;;;;15.65;4.13;;;22.10;57.70;;;;;;4971597;28;20027;-71
2022/03/18 08:14:58;;;;;;;8.68;3.33;;;22.10;57.90;;;;;;4971795;28;20479;-71
2022/03/18 08:17:24;;;;;;;14.15;3.78;;;22.10;57.90;;;;;;4971529;28;20027;-73
2022/03/18 08:19:51;;;;;;;8.40;3.75;;;22.20;58.10;;;;;;4970768;28;20031;-73
2022/03/18 08:22:21;;;;;;;12.35;3.95;;;22.10;57.90;;;;;;4970427;28;20110;-71
2022/03/18 08:24:49;;;;;;;8.00;3.78;;;22.20;57.90;;;;;;4980488;28;20509;-73
2022/03/18 08:27:16;;;;;;;7.28;3.58;;;22.20;57.80;;;;;;4971651;28;20390;-71
2022/03/18 08:29:42;;;;;;;8.98;3.70;;;22.20;57.80;;;;;;4971890;28;20026;-72
2022/03/18 08:32:13;;;;;;;12.15;4.00;;;22.20;57.80;;;;;;4973847;28;20497;-71
2022/03/18 08:34:39;;;;;;;8.70;3.72;;;22.20;58.00;;;;;;4975220;28;20038;-71
2022/03/18 08:37:05;;;;;;;9.65;3.63;;;22.20;58.10;;;;;;4971812;28;20031;-71
2022/03/18 08:39:32;;;;;;;8.90;3.70;;;22.20;58.10;;;;;;4972295;28;20034;-72
2022/03/18 08:41:58;;;;;;;12.73;3.78;;;22.20;58.00;;;;;;4974791;28;20026;-76
2022/03/18 08:44:23;;;;;;;12.90;4.75;;;22.20;57.80;;;;;;4972649;28;20566;-72
2022/03/18 08:46:50;;;;;;;14.25;4.32;;;22.10;53.00;;;;;;4964942;28;20439;-72
2022/03/18 08:49:16;;;;;;;14.75;4.60;;;22.00;52.50;;;;;;4972361;28;20022;-72
2022/03/18 08:51:42;;;;;;;25.85;5.70;;;22.00;55.80;;;;;;4972081;28;20037;-72
2022/03/18 08:54:07;;;;;;;26.73;6.85;;;22.00;56.70;;;;;;4974280;28;20027;-71
2022/03/18 08:56:34;;;;;;;27.00;6.88;;;22.00;58.60;;;;;;4975210;28;20023;-72
2022/03/18 08:59:03;;;;;;;17.20;5.15;;;22.10;57.80;;;;;;4973542;28;20038;-72
2022/03/18 09:01:29;;;;;;;25.70;6.00;;;22.10;56.10;;;;;;4973856;28;20034;-72
2022/03/18 09:03:55;;;;;;;28.55;6.82;;;22.20;55.80;;;;;;4974533;28;20130;-72
2022/03/18 09:06:21;;;;;;;23.48;5.63;;;22.10;58.20;;;;;;4974817;28;20113;-72
2022/03/18 09:08:46;;;;;;;18.85;5.25;;;22.20;56.60;;;;;;4975008;28;20031;-71
2022/03/18 09:11:12;;;;;;;17.58;5.43;;;22.20;55.80;;;;;;4974518;28;20057;-72
2022/03/18 09:13:38;;;;;;;16.40;5.13;;;22.10;55.50;;;;;;4969763;28;20027;-72
2022/03/18 09:16:04;;;;;;;19.92;5.32;;;22.10;55.30;;;;;;4974240;28;20114;-73
2022/03/18 09:18:32;;;;;;;21.00;5.22;;;22.20;55.90;;;;;;4957874;28;20042;-71
2022/03/18 09:20:58;;;;;;;18.00;5.50;;;22.10;54.00;;;;;;4969111;28;20035;-72
2022/03/18 09:23:24;;;;;;;17.92;4.70;;;22.10;54.50;;;;;;4973023;28;20019;-72
2022/03/18 09:25:51;;;;;;;17.98;4.68;;;22.10;54.10;;;;;;4974249;28;20034;-72
2022/03/18 09:28:17;;;;;;;17.88;4.78;;;22.10;54.30;;;;;;4974666;28;20130;-72
2022/03/18 09:30:43;;;;;;;15.40;4.43;;;22.10;54.30;;;;;;4974059;28;20035;-72
2022/03/18 09:33:09;;;;;;;18.42;4.47;;;22.10;54.20;;;;;;4944334;28;20035;-72
2022/03/18 09:35:36;;;;;;;16.10;4.57;;;22.20;54.20;;;;;;4962305;28;20043;-72
2022/03/18 09:38:02;;;;;;;18.45;4.72;;;22.20;53.00;;;;;;4967136;28;20030;-72
2022/03/18 09:40:28;;;;;;;19.85;4.57;;;22.20;53.60;;;;;;4962445;28;20019;-71
2022/03/18 09:43:03;;;;;;;17.95;5.10;;;22.20;52.70;;;;;;4963994;28;20023;-71
2022/03/18 09:45:31;;;;;;;18.55;5.03;;;22.30;52.20;;;;;;4967064;28;20038;-71
2022/03/18 09:47:59;;;;;;;16.27;4.70;;;22.20;52.20;;;;;;4970907;28;20151;-71
2022/03/18 09:50:26;;;;;;;15.70;3.95;;;22.20;52.90;;;;;;4968668;28;21486;-71
2022/03/18 09:52:52;;;;;;;13.45;4.28;;;22.20;52.70;;;;;;4969584;28;20029;-71
2022/03/18 09:55:17;;;;;;;16.55;4.35;;;22.20;52.60;;;;;;4968972;28;20027;-71
2022/03/18 09:57:43;;;;;;;17.83;4.93;;;22.20;53.00;;;;;;4971828;28;20031;-72
2022/03/18 10:00:10;;;;;;;28.02;12.82;;;22.10;52.70;;;;;;4964840;28;20039;-73
2022/03/18 10:02:38;;;;;;;27.23;14.23;;;21.80;47.00;;;;;;4969883;28;20019;-73
2022/03/18 10:05:13;;;;;;;27.65;14.02;;;21.60;44.60;;;;;;4977444;23;21443;-69
2022/03/18 10:07:39;;;;;;;22.50;8.63;;;21.40;42.90;;;;;;4968018;28;20054;-69
2022/03/18 10:10:08;;;;;;;20.10;7.15;;;21.00;40.40;;;;;;4971423;28;20612;-69
2022/03/18 10:12:38;;;;;;;20.15;7.50;;;20.70;40.20;;;;;;4968897;28;20109;-69
2022/03/18 10:15:10;;;;;;;21.67;7.97;;;20.10;39.60;;;;;;4967010;28;20483;-69
2022/03/18 10:17:52;;;;;;;20.20;6.72;;;20.10;40.00;;;;;;4965778;28;20033;-69
2022/03/18 10:20:27;;;;;;;19.45;7.63;;;20.40;42.60;;;;;;4964254;28;20542;-70
2022/03/18 10:22:54;;;;;;;17.88;6.93;;;20.70;41.70;;;;;;4970177;28;20033;-69
2022/03/18 10:25:40;;;;;;;17.25;6.07;;;20.80;42.60;;;;;;4969314;28;20479;-69
2022/03/18 10:28:07;;;;;;;18.58;6.30;;;21.00;42.70;;;;;;4962170;28;20041;-70
2022/03/18 10:30:34;;;;;;;20.00;6.03;;;21.10;41.10;;;;;;4954025;28;20117;-69
2022/03/18 10:33:00;;;;;;;17.45;6.10;;;21.10;41.20;;;;;;4963459;28;20034;-69
2022/03/18 10:38:33;;;;;;;22.70;6.15;;;21.30;41.80;;;;;;4945331;28;20118;-70
2022/03/18 10:41:00;;;;;;;15.77;5.53;;;21.30;40.30;;;;;;4971437;28;20026;-71
2022/03/18 10:43:26;;;;;;;16.02;5.50;;;21.30;40.70;;;;;;4969132;28;20027;-72
2022/03/18 10:46:07;;;;;;;24.45;6.88;;;21.30;40.30;;;;;;4963673;28;20030;-70
2022/03/18 10:48:33;;;;;;;17.23;5.68;;;21.30;40.20;;;;;;4967874;28;20035;-69
2022/03/18 10:51:07;;;;;;;16.90;5.90;;;21.20;39.90;;;;;;4965404;28;20503;-70
2022/03/18 10:53:35;;;;;;;19.88;5.68;;;21.20;39.70;;;;;;4960602;28;20058;-74
2022/03/18 10:56:02;;;;;;;14.80;4.88;;;21.30;39.60;;;;;;4967031;28;20034;-73
2022/03/18 10:58:31;;;;;;;18.60;4.95;;;21.30;41.60;;;;;;4965676;28;20110;-73
2022/03/18 11:00:59;;;;;;;23.17;4.63;;;21.40;42.10;;;;;;4964602;28;20027;-68
2022/03/18 11:03:25;;;;;;;22.33;11.75;;;21.50;41.10;;;;;;4964363;28;20046;-68
2022/03/18 11:05:52;;;;;;;33.22;22.42;;;21.50;40.60;;;;;;4963290;28;20027;-68
2022/03/18 11:08:22;;;;;;;38.13;23.20;;;21.40;39.20;;;;;;4963403;28;21251;-69
2022/03/18 11:13:49;;;;;;;28.30;14.30;;;21.20;37.80;;;;;;4963675;28;20023;-69
2022/03/18 11:16:28;;;;;;;20.60;10.65;;;21.20;38.40;;;;;;4979330;28;20105;-69
2022/03/18 11:18:54;;;;;;;19.15;9.45;;;21.10;38.00;;;;;;4967574;28;20074;-69
2022/03/18 11:21:21;;;;;;;21.13;7.35;;;21.20;38.20;;;;;;4965638;28;20023;-69
2022/03/18 11:23:48;;;;;;;18.25;7.45;;;21.10;37.70;;;;;;4968273;28;20109;-70
2022/03/18 11:26:19;;;;;;;15.48;6.55;;;21.10;37.10;;;;;;4966694;28;20088;-68
2022/03/18 11:28:45;;;;;;;21.85;11.80;;;21.10;37.10;;;;;;4967070;28;20117;-71
2022/03/18 11:31:17;;;;;;;24.23;8.95;;;21.10;37.50;;;;;;4950392;28;20082;-70
2022/03/18 11:34:10;;;;;;;17.63;7.93;;;21.20;37.60;;;;;;4970588;28;20575;-70
2022/03/18 11:36:37;;;;;;;22.70;6.78;;;21.40;38.70;;;;;;4967567;28;20022;-70
2022/03/18 11:39:06;;;;;;;15.85;6.03;;;21.40;37.30;;;;;;4965603;28;20073;-70
2022/03/18 11:41:53;;;;;;;16.45;5.63;;;21.30;36.90;;;;;;4962709;28;20031;-70
2022/03/18 11:44:37;;;;;;;14.52;4.95;;;21.20;36.60;;;;;;4969739;28;20094;-70
2022/03/18 11:47:29;;;;;;;13.75;4.72;;;21.20;36.70;;;;;;4964793;28;20097;-70
2022/03/18 11:49:55;;;;;;;15.60;5.13;;;21.20;36.10;;;;;;4962330;28;20026;-70
2022/03/18 11:52:21;;;;;;;12.73;4.40;;;21.10;36.10;;;;;;4959859;28;20118;-69
2022/03/18 11:54:54;;;;;;;14.90;4.43;;;21.10;36.50;;;;;;4965278;28;20037;-70
2022/03/18 11:57:34;;;;;;;13.30;4.32;;;21.10;36.70;;;;;;4962236;28;20419;-69
2022/03/18 12:00:05;;;;;;;14.52;4.57;;;21.10;36.50;;;;;;4980482;28;20034;-70
2022/03/18 12:02:32;;;;;;;13.32;4.60;;;21.20;36.50;;;;;;4965755;28;20200;-70
2022/03/18 12:04:58;;;;;;;16.77;4.72;;;21.20;36.40;;;;;;4961284;28;20030;-70
2022/03/18 12:07:30;;;;;;;12.70;4.38;;;21.20;38.20;;;;;;4948099;28;20034;-70
2022/03/18 12:10:00;;;;;;;16.85;4.70;;;21.10;36.80;;;;;;4962361;28;20066;-70
2022/03/18 12:12:33;;;;;;;21.95;4.38;;;21.20;37.20;;;;;;4973335;28;20317;-69
2022/03/18 12:15:03;;;;;;;13.65;4.45;;;21.30;36.50;;;;;;4967006;28;20372;-69
2022/03/18 12:17:29;;;;;;;13.63;4.32;;;21.30;38.60;;;;;;4966075;28;20037;-69
2022/03/18 12:19:59;;;;;;;14.18;4.32;;;21.30;37.60;;;;;;4965209;28;20049;-69
2022/03/18 12:22:27;;;;;;;17.00;3.72;;;21.10;35.10;;;;;;4962297;28;20027;-68
2022/03/18 12:24:55;;;;;;;16.00;3.80;;;21.00;35.90;;;;;;4967572;28;20027;-70
2022/03/18 12:27:33;;;;;;;19.67;4.07;;;20.80;36.30;;;;;;4966927;28;20082;-70
2022/03/18 12:30:00;;;;;;;18.48;3.38;;;21.00;36.60;;;;;;4972863;28;20077;-71
2022/03/18 12:32:27;;;;;;;11.07;3.05;;;21.10;36.00;;;;;;4969291;28;20119;-70
2022/03/18 12:34:55;;;;;;;13.13;3.55;;;21.00;35.90;;;;;;4978350;28;20114;-70
2022/03/18 12:37:24;;;;;;;16.90;3.45;;;20.80;34.10;;;;;;4967581;28;20049;-72
2022/03/18 12:40:11;;;;;;;16.60;5.47;;;20.50;34.50;;;;;;4966102;28;20102;-72
2022/03/18 12:42:56;;;;;;;21.50;9.88;;;20.60;34.50;;;;;;4967288;28;20109;-72
2022/03/18 12:45:29;;;;;;;19.20;10.73;;;20.70;35.20;;;;;;4954830;28;20140;-72
2022/03/18 12:47:57;;;;;;;18.60;9.52;;;20.70;34.20;;;;;;4973213;28;20541;-72
2022/03/18 12:50:28;;;;;;;15.80;6.43;;;20.30;33.90;;;;;;4975257;28;20031;-72
2022/03/18 12:52:54;;;;;;;16.45;5.55;;;20.40;33.80;;;;;;4973539;28;20067;-72
2022/03/18 12:55:22;;;;;;;26.95;5.80;;;20.50;34.20;;;;;;4954252;28;20051;-73
2022/03/18 12:57:52;;;;;;;19.38;5.63;;;20.70;34.60;;;;;;4954194;29;20035;-71
2022/03/18 13:00:18;;;;;;;19.05;5.28;;;20.80;34.40;;;;;;4955663;29;20396;-71